createdAt,value
2022-12-23T00:00:59.556Z,64.50
2022-12-23T00:04:08.395Z,66.90
2022-12-23T00:07:16.907Z,65.70
2022-12-23T00:10:24.934Z,77.20
2022-12-23T00:13:33.789Z,67.70
2022-12-23T00:16:42.812Z,78.40
2022-12-23T00:19:51.056Z,67.80
2022-12-23T00:23:00.342Z,74.80
2022-12-23T00:26:08.991Z,86.20
2022-12-23T00:29:17.469Z,72.50
2022-12-23T00:32:26.131Z,76.60
2022-12-23T00:35:34.928Z,83.00
2022-12-23T00:38:43.417Z,76.80
2022-12-23T00:41:51.722Z,82.60
2022-12-23T00:44:59.693Z,82.90
2022-12-23T00:48:08.383Z,90.40
2022-12-23T00:51:16.565Z,89.90
2022-12-23T00:54:24.874Z,95.70
2022-12-23T00:57:33.245Z,80.60
2022-12-23T01:00:41.729Z,87.30
2022-12-23T01:03:50.541Z,74.30
2022-12-23T01:06:58.616Z,76.90
2022-12-23T01:10:07.556Z,88.10
2022-12-23T01:13:16.398Z,81.50
2022-12-23T01:16:24.488Z,80.50
2022-12-23T01:19:28.028Z,82.10
2022-12-23T01:22:36.779Z,88.70
2022-12-23T01:25:44.809Z,95.90
2022-12-23T01:28:53.692Z,92.70
2022-12-23T01:32:02.320Z,79.70
2022-12-23T01:35:10.788Z,86.60
2022-12-23T01:38:19.501Z,92.10
2022-12-23T01:41:27.616Z,90.50
2022-12-23T01:44:36.103Z,69.60
2022-12-23T01:47:45.027Z,77.30
2022-12-23T01:50:53.517Z,90.60
2022-12-23T01:54:01.970Z,86.60
2022-12-23T01:57:10.328Z,72.50
2022-12-23T02:00:19.221Z,66.90
2022-12-23T02:03:27.874Z,66.80
2022-12-23T02:06:36.191Z,75.10
2022-12-23T02:09:45.089Z,59.70
2022-12-23T02:12:53.780Z,45.00
2022-12-23T02:16:02.339Z,37.90
2022-12-23T02:19:11.366Z,54.50
2022-12-23T02:22:19.389Z,48.80
2022-12-23T02:25:28.232Z,51.60
2022-12-23T02:28:36.983Z,56.80
2022-12-23T02:31:45.110Z,71.20
2022-12-23T02:34:53.944Z,62.60
2022-12-23T02:38:02.815Z,36.60
2022-12-23T02:41:10.816Z,38.10
2022-12-23T02:44:19.609Z,29.30
2022-12-23T02:47:28.453Z,20.70
2022-12-23T02:50:36.463Z,20.30
2022-12-23T02:53:44.919Z,19.80
2022-12-23T02:56:53.127Z,27.40
2022-12-23T03:00:02.215Z,19.70
2022-12-23T03:03:11.023Z,24.50
2022-12-23T03:06:19.384Z,21.90
2022-12-23T03:09:28.326Z,19.80
2022-12-23T03:12:36.834Z,23.10
2022-12-23T03:15:45.509Z,17.60
2022-12-23T03:18:55.229Z,16.20
2022-12-23T03:22:03.323Z,17.40
2022-12-23T03:25:12.752Z,21.30
2022-12-23T03:28:21.739Z,19.80
2022-12-23T03:31:29.825Z,22.20
2022-12-23T03:34:38.626Z,21.90
2022-12-23T03:37:47.543Z,25.70
2022-12-23T03:40:55.668Z,23.90
2022-12-23T03:44:04.398Z,26.30
2022-12-23T03:47:12.932Z,25.70
2022-12-23T03:50:21.362Z,28.50
2022-12-23T03:53:29.982Z,26.70
2022-12-23T03:56:38.545Z,22.80
2022-12-23T03:59:46.955Z,20.60
2022-12-23T04:02:55.392Z,21.40
2022-12-23T04:06:04.370Z,25.80
2022-12-23T04:09:16.646Z,27.90
2022-12-23T04:12:16.787Z,23.20
2022-12-23T04:15:25.759Z,24.40
2022-12-23T04:18:33.904Z,19.70
2022-12-23T04:21:42.267Z,28.40
2022-12-23T04:24:50.806Z,26.60
2022-12-23T04:27:58.649Z,21.00
2022-12-23T04:31:07.083Z,27.60
2022-12-23T04:34:15.623Z,22.30
2022-12-23T04:37:23.529Z,22.70
2022-12-23T04:40:32.213Z,23.10
2022-12-23T04:43:40.934Z,22.30
2022-12-23T04:46:48.865Z,27.50
2022-12-23T04:49:57.646Z,24.10
2022-12-23T04:53:06.567Z,25.80
2022-12-23T04:56:14.653Z,28.30
2022-12-23T04:59:23.457Z,36.20
2022-12-23T05:02:31.825Z,30.20
2022-12-23T05:05:40.250Z,30.60
2022-12-23T05:08:49.850Z,39.10
2022-12-23T05:11:57.911Z,50.40
2022-12-23T05:15:06.024Z,39.20
2022-12-23T05:18:14.853Z,37.80
2022-12-23T05:21:23.101Z,37.00
2022-12-23T05:24:31.511Z,34.90
2022-12-23T05:27:40.043Z,29.70
2022-12-23T05:30:48.464Z,30.10
2022-12-23T05:34:02.288Z,38.70
2022-12-23T05:37:01.026Z,37.40
2022-12-23T05:40:09.628Z,43.50
2022-12-23T05:43:18.125Z,44.20
2022-12-23T05:46:27.400Z,46.30
2022-12-23T05:49:36.664Z,51.60
2022-12-23T05:52:45.038Z,52.40
2022-12-23T05:55:53.131Z,58.20
2022-12-23T05:59:02.002Z,55.40
2022-12-23T06:02:10.683Z,45.70
2022-12-23T06:05:19.343Z,50.50
2022-12-23T06:08:28.122Z,51.20
2022-12-23T06:11:36.985Z,48.30
2022-12-23T06:14:45.709Z,47.20
2022-12-23T06:17:54.352Z,65.20
2022-12-23T06:21:02.742Z,52.20
2022-12-23T06:24:11.127Z,47.30
2022-12-23T06:27:20.081Z,57.10
2022-12-23T06:30:28.657Z,52.20
2022-12-23T06:33:37.331Z,43.90
2022-12-23T06:36:45.832Z,41.20
2022-12-23T06:39:54.737Z,50.10
2022-12-23T06:43:03.087Z,47.60
2022-12-23T06:46:11.424Z,59.60
2022-12-23T06:49:20.309Z,55.90
2022-12-23T06:52:28.837Z,62.70
2022-12-23T06:55:37.114Z,64.80
2022-12-23T06:58:45.793Z,69.00
2022-12-23T07:01:54.497Z,67.40
2022-12-23T07:05:02.582Z,74.20
2022-12-23T07:08:11.378Z,70.70
2022-12-23T07:11:19.583Z,72.90
2022-12-23T07:14:28.803Z,85.20
2022-12-23T07:17:37.655Z,85.10
2022-12-23T07:20:45.891Z,78.20
2022-12-23T07:23:54.875Z,93.00
2022-12-23T07:27:03.671Z,67.70
2022-12-23T07:30:12.067Z,75.30
2022-12-23T07:33:20.516Z,70.90
2022-12-23T07:36:29.608Z,67.70
2022-12-23T07:39:38.120Z,63.20
2022-12-23T07:42:47.271Z,59.10
2022-12-23T07:45:59.850Z,86.20
2022-12-23T07:48:58.636Z,67.60
2022-12-23T07:52:07.266Z,69.80
2022-12-23T07:55:15.886Z,75.10
2022-12-23T07:58:24.848Z,71.30
2022-12-23T08:01:33.436Z,93.30
2022-12-23T08:04:46.067Z,89.60
2022-12-23T08:07:44.632Z,97.30
2022-12-23T08:10:52.753Z,93.50
2022-12-23T08:14:01.488Z,91.70
2022-12-23T08:17:10.479Z,89.50
2022-12-23T08:20:18.654Z,83.20
2022-12-23T08:23:27.052Z,97.60
2022-12-23T08:26:35.963Z,103.20
2022-12-23T08:29:44.076Z,84.40
2022-12-23T08:32:53.009Z,79.00
2022-12-23T08:36:02.159Z,101.30
2022-12-23T08:39:10.260Z,93.60
2022-12-23T08:42:18.711Z,90.30
2022-12-23T08:45:27.250Z,105.60
2022-12-23T08:48:36.029Z,104.90
2022-12-23T08:51:44.561Z,95.30
2022-12-23T08:54:53.018Z,93.70
2022-12-23T08:58:01.381Z,86.80
2022-12-23T09:01:10.358Z,86.30
2022-12-23T09:04:18.873Z,74.10
2022-12-23T09:07:27.453Z,88.60
2022-12-23T09:10:35.742Z,71.00
2022-12-23T09:13:44.874Z,75.50
2022-12-23T09:16:53.454Z,83.70
2022-12-23T09:20:01.932Z,71.20
2022-12-23T09:23:10.828Z,70.20
2022-12-23T09:26:19.258Z,72.30
2022-12-23T09:29:27.336Z,74.30
2022-12-23T09:32:36.248Z,74.00
2022-12-23T09:35:44.634Z,81.20
2022-12-23T09:38:52.611Z,59.30
2022-12-23T09:42:01.385Z,64.10
2022-12-23T09:45:10.132Z,61.80
2022-12-23T09:48:18.701Z,74.70
2022-12-23T09:51:27.457Z,59.40
2022-12-23T09:54:35.854Z,57.50
2022-12-23T09:57:44.365Z,58.90
2022-12-23T10:00:52.753Z,63.40
2022-12-23T10:04:01.664Z,74.30
2022-12-23T10:07:11.198Z,80.60
2022-12-23T10:10:19.695Z,76.40
2022-12-23T10:13:28.400Z,72.10
2022-12-23T10:16:36.820Z,68.70
2022-12-23T10:19:45.442Z,66.40
2022-12-23T10:22:54.330Z,73.50
2022-12-23T10:26:02.281Z,58.50
2022-12-23T10:29:16.862Z,44.00
2022-12-23T10:32:16.118Z,41.00
2022-12-23T10:35:24.276Z,35.90
2022-12-23T10:38:33.140Z,38.80
2022-12-23T10:41:41.635Z,34.50
2022-12-23T10:44:50.113Z,35.10
2022-12-23T10:47:59.073Z,37.50
2022-12-23T10:51:07.526Z,34.90
2022-12-23T10:54:16.004Z,32.10
2022-12-23T10:57:24.801Z,39.10
2022-12-23T11:00:33.243Z,37.10
2022-12-23T11:03:41.754Z,42.20
2022-12-23T11:07:10.627Z,55.20
2022-12-23T11:09:56.306Z,47.40
2022-12-23T11:13:04.672Z,50.70
2022-12-23T11:16:13.145Z,49.50
2022-12-23T11:19:21.983Z,46.70
2022-12-23T11:22:30.221Z,50.70
2022-12-23T11:25:38.521Z,60.70
2022-12-23T11:28:47.476Z,52.90
2022-12-23T11:31:56.617Z,65.40
2022-12-23T11:35:05.091Z,58.80
2022-12-23T11:38:13.947Z,58.90
2022-12-23T11:41:22.025Z,53.20
2022-12-23T11:44:30.898Z,65.20
2022-12-23T11:47:39.738Z,47.10
2022-12-23T11:50:47.996Z,52.90
2022-12-23T11:53:57.173Z,58.40
2022-12-23T11:57:06.165Z,52.60
2022-12-23T12:00:14.155Z,53.00
2022-12-23T12:03:22.830Z,42.80
2022-12-23T12:06:31.475Z,45.40
2022-12-23T12:09:40.551Z,61.30
2022-12-23T12:12:52.986Z,44.20
2022-12-23T12:15:52.636Z,48.90
2022-12-23T12:19:01.385Z,61.60
2022-12-23T12:22:09.361Z,56.50
2022-12-23T12:25:18.335Z,59.40
2022-12-23T12:28:27.185Z,60.00
2022-12-23T12:31:35.250Z,52.50
2022-12-23T12:34:44.050Z,50.50
2022-12-23T12:37:52.591Z,54.10
2022-12-23T12:41:00.864Z,56.00
2022-12-23T12:44:09.772Z,58.90
2022-12-23T12:50:23.945Z,62.20
2022-12-23T12:53:32.900Z,56.70
2022-12-23T12:56:41.288Z,57.00
2022-12-23T12:59:49.750Z,64.90
2022-12-23T13:02:58.388Z,53.00
2022-12-23T13:06:07.295Z,46.70
2022-12-23T13:09:15.482Z,48.50
2022-12-23T13:12:23.741Z,46.40
2022-12-23T13:15:32.622Z,47.40
2022-12-23T13:18:40.603Z,46.10
2022-12-23T13:21:50.168Z,48.70
2022-12-23T13:24:59.003Z,41.40
2022-12-23T13:28:06.985Z,49.80
2022-12-23T13:31:15.983Z,46.60
2022-12-23T13:34:24.928Z,34.80
2022-12-23T13:37:32.895Z,37.30
2022-12-23T13:40:41.318Z,35.90
2022-12-23T13:43:50.141Z,37.80
2022-12-23T13:46:58.113Z,36.90
2022-12-23T13:50:06.836Z,44.30
2022-12-23T13:53:15.431Z,52.00
2022-12-23T13:56:23.856Z,49.20
2022-12-23T13:59:32.473Z,43.60
2022-12-23T14:02:40.988Z,48.90
2022-12-23T14:05:50.203Z,55.50
2022-12-23T14:08:58.912Z,54.90
2022-12-23T14:12:07.286Z,51.40
2022-12-23T14:15:15.847Z,46.30
2022-12-23T14:18:23.896Z,60.00
2022-12-23T14:21:32.657Z,54.00
2022-12-23T14:24:41.128Z,61.40
2022-12-23T14:27:49.585Z,66.00
2022-12-23T14:30:58.580Z,71.80
2022-12-23T14:34:07.193Z,65.10
2022-12-23T14:37:15.303Z,58.60
2022-12-23T14:40:24.160Z,54.10
2022-12-23T14:43:32.571Z,59.00
2022-12-23T14:46:41.054Z,55.60
2022-12-23T14:49:50.371Z,53.60
2022-12-23T14:52:58.377Z,74.00
2022-12-23T14:56:07.111Z,66.10
2022-12-23T14:59:16.144Z,74.70
2022-12-23T15:02:24.778Z,69.30
2022-12-23T15:05:33.231Z,70.20
2022-12-23T15:08:41.764Z,74.80
2022-12-23T15:11:50.616Z,63.90
2022-12-23T15:14:59.077Z,89.80
2022-12-23T15:18:07.630Z,79.50
2022-12-23T15:21:16.955Z,81.70
2022-12-23T15:24:26.501Z,88.60
2022-12-23T15:27:36.093Z,98.50
2022-12-23T15:30:44.559Z,92.20
2022-12-23T15:34:02.711Z,86.70
2022-12-23T15:36:59.075Z,81.50
2022-12-23T15:40:13.294Z,93.40
2022-12-23T15:43:11.285Z,93.00
2022-12-23T15:46:26.953Z,83.60
2022-12-23T15:49:26.282Z,88.80
2022-12-23T15:52:35.691Z,95.20
2022-12-23T15:55:44.857Z,88.70
2022-12-23T15:58:53.628Z,91.90
2022-12-23T16:02:04.080Z,92.10
2022-12-23T16:05:06.934Z,87.10
2022-12-23T16:08:15.128Z,82.10
2022-12-23T16:11:23.148Z,84.80
2022-12-23T16:14:24.007Z,81.90
2022-12-23T16:17:32.069Z,84.60
2022-12-23T16:20:40.648Z,91.00
2022-12-23T16:23:49.568Z,85.60
2022-12-23T16:26:58.134Z,94.90
2022-12-23T16:30:06.411Z,88.40
2022-12-23T16:33:15.138Z,95.40
2022-12-23T16:36:24.055Z,80.40
2022-12-23T16:39:32.628Z,74.30
2022-12-23T16:42:41.041Z,78.60
2022-12-23T16:45:50.407Z,70.10
2022-12-23T16:48:58.535Z,74.30
2022-12-23T16:52:07.176Z,78.90
2022-12-23T16:55:16.096Z,61.80
2022-12-23T16:58:24.156Z,50.10
2022-12-23T17:01:33.533Z,58.30
2022-12-23T17:04:42.647Z,55.10
2022-12-23T17:07:50.939Z,40.30
2022-12-23T17:10:59.909Z,33.70
2022-12-23T17:14:13.698Z,32.60
2022-12-23T17:17:12.783Z,31.80
2022-12-23T17:20:21.417Z,21.80
2022-12-23T17:23:30.193Z,17.50
2022-12-23T17:26:38.863Z,16.40
2022-12-23T17:29:47.350Z,19.40
2022-12-23T17:32:56.445Z,10.70
2022-12-23T17:36:05.647Z,11.00
2022-12-23T17:39:14.072Z,11.20
2022-12-23T17:42:25.819Z,12.50
2022-12-23T17:45:24.359Z,11.30
2022-12-23T17:48:32.851Z,11.60
2022-12-23T17:51:41.800Z,16.70
2022-12-23T17:54:50.967Z,13.30
2022-12-23T17:57:59.261Z,14.10
2022-12-23T18:01:08.372Z,15.50
2022-12-23T18:04:17.014Z,12.10
2022-12-23T18:07:25.179Z,16.80
2022-12-23T18:10:34.100Z,25.20
2022-12-23T18:13:43.051Z,29.10
2022-12-23T18:16:51.241Z,32.70
2022-12-23T18:20:00.183Z,49.40
2022-12-23T18:23:08.735Z,52.20
2022-12-23T18:26:16.820Z,54.80
2022-12-23T18:29:25.812Z,64.00
2022-12-23T18:32:34.325Z,66.70
2022-12-23T18:35:42.768Z,54.20
2022-12-23T18:38:51.763Z,49.70
2022-12-23T18:42:00.425Z,45.40
2022-12-23T18:45:08.936Z,47.20
2022-12-23T18:48:17.908Z,49.20
2022-12-23T18:51:26.830Z,59.20
2022-12-23T18:54:35.120Z,56.40
2022-12-23T18:57:43.322Z,60.10
2022-12-23T19:00:52.457Z,52.00
2022-12-23T19:04:01.080Z,50.90
2022-12-23T19:07:09.873Z,68.20
2022-12-23T19:10:18.769Z,54.10
2022-12-23T19:13:27.537Z,67.10
2022-12-23T19:16:35.613Z,58.40
2022-12-23T19:19:44.595Z,55.00
2022-12-23T19:22:16.045Z,114.10
2022-12-23T19:25:25.089Z,108.00
2022-12-23T19:28:33.626Z,87.90
2022-12-23T19:31:41.684Z,81.80
2022-12-23T19:34:50.513Z,89.20
2022-12-23T19:37:58.972Z,74.30
2022-12-23T19:41:07.661Z,46.10
2022-12-23T19:44:16.363Z,87.40
2022-12-23T19:47:24.719Z,63.10
2022-12-23T19:50:33.269Z,93.60
2022-12-23T19:53:42.255Z,81.40
2022-12-23T19:56:50.671Z,58.00
2022-12-23T19:59:59.210Z,64.00
2022-12-23T20:03:07.906Z,47.60
2022-12-23T20:06:16.354Z,68.80
2022-12-23T20:09:24.957Z,50.60
2022-12-23T20:12:33.553Z,57.00
2022-12-23T20:15:43.042Z,55.90
2022-12-23T20:18:51.595Z,56.20
2022-12-23T20:22:00.002Z,48.50
2022-12-23T20:25:09.420Z,62.30
2022-12-23T20:28:17.586Z,65.20
2022-12-23T20:31:26.286Z,72.70
2022-12-23T20:34:39.768Z,65.70
2022-12-23T20:37:37.915Z,60.70
2022-12-23T20:40:46.007Z,58.80
2022-12-23T20:44:32.522Z,55.50
2022-12-23T20:47:00.418Z,52.00
2022-12-23T20:50:09.291Z,52.60
2022-12-23T20:53:17.468Z,50.30
2022-12-23T20:56:25.911Z,54.20
2022-12-23T20:59:34.457Z,73.90
2022-12-23T21:02:42.879Z,55.00
2022-12-23T21:05:51.315Z,53.00
2022-12-23T21:08:59.639Z,41.30
2022-12-23T21:12:08.091Z,42.90
2022-12-23T21:15:16.415Z,54.50
2022-12-23T21:18:24.427Z,47.10
2022-12-23T21:21:33.223Z,48.80
2022-12-23T21:24:41.857Z,36.10
2022-12-23T21:27:49.946Z,46.10
2022-12-23T21:30:59.591Z,36.50
2022-12-23T21:34:08.530Z,63.10
2022-12-23T21:37:16.385Z,36.30
2022-12-23T21:40:25.176Z,46.80
2022-12-23T21:43:33.182Z,35.80
2022-12-23T21:46:42.362Z,37.70
2022-12-23T21:49:51.390Z,28.40
2022-12-23T21:52:59.483Z,32.60
2022-12-23T21:56:07.971Z,33.30
2022-12-23T21:59:17.309Z,34.10
2022-12-23T22:02:25.483Z,44.30
2022-12-23T22:05:34.221Z,24.50
2022-12-23T22:08:42.664Z,37.80
2022-12-23T22:11:51.515Z,42.80
2022-12-23T22:14:59.990Z,50.20
2022-12-23T22:18:08.418Z,34.50
2022-12-23T22:21:17.241Z,41.00
2022-12-23T22:24:25.602Z,33.40
2022-12-23T22:27:34.095Z,35.40
2022-12-23T22:30:42.601Z,28.70
2022-12-23T22:33:50.959Z,34.10
2022-12-23T22:36:59.996Z,28.40
2022-12-23T22:40:08.909Z,30.40
2022-12-23T22:43:16.970Z,22.90
2022-12-23T22:46:25.441Z,25.50
2022-12-23T22:49:34.408Z,34.80
2022-12-23T22:52:42.404Z,21.20
2022-12-23T22:55:51.221Z,22.20
2022-12-23T22:59:00.040Z,24.80
2022-12-23T23:02:08.151Z,24.40
2022-12-23T23:05:16.886Z,18.70
2022-12-23T23:08:24.761Z,19.40
2022-12-23T23:11:33.491Z,25.40
2022-12-23T23:14:42.457Z,27.70
2022-12-23T23:17:50.843Z,19.40
2022-12-23T23:20:59.151Z,19.20
2022-12-23T23:24:07.898Z,18.60
2022-12-23T23:27:16.111Z,17.20
2022-12-23T23:30:24.922Z,16.80
2022-12-23T23:33:33.423Z,14.70
2022-12-23T23:36:42.035Z,15.50
2022-12-23T23:39:51.052Z,21.10
2022-12-23T23:42:59.655Z,25.10
2022-12-23T23:46:08.019Z,20.60
2022-12-23T23:49:16.888Z,22.90
2022-12-23T23:52:25.239Z,15.80
2022-12-23T23:55:33.668Z,13.60
2022-12-23T23:58:41.652Z,16.70
